Lintlaw, Canada
Current Conditions -  °F | °C
As of 2:53 AM on Friday 28 Nov 2014 (Local Time) from CYQV Reporting Station
Light Snow Light Snow  
Wind Chill: -4°   Ceiling: 2600
Heat Index:   Visibility: 5mi
Dew Point:   Wind: 8mph
Humidity: 85%   Direction: 60°ENE
Pressure: 29.97"   Gusts: NA
Location:  52.07°N, 103.25°W
Report Text: CYQV 280853Z AUTO 06007KT 5SM -SN OVC026 M13/M15 A2997 RMK SLP192
Loading
Personal Weather Stations






























Interactive Weather Map New forecast layout! Learn more

10-Day Weather Forecast

Advertisements
Track Severe Weather on mobile